createdAt,value
2018-07-06T06:12:17.992Z,3.1
2018-07-06T06:12:30.613Z,3.1
2018-07-06T06:12:43.045Z,3.1
2018-07-06T06:12:55.446Z,3.1
2018-07-06T06:13:07.906Z,3.1
2018-07-06T06:13:20.327Z,3.1
2018-07-06T06:13:32.780Z,3.1
2018-07-06T06:13:45.181Z,3.1
2018-07-06T06:13:57.582Z,3.1
2018-07-06T06:14:09.992Z,3.1
2018-07-06T06:14:22.406Z,3.1
2018-07-06T06:14:34.814Z,3.1
2018-07-06T06:14:47.506Z,3.1
2018-07-06T06:15:00.706Z,3.1
2018-07-06T06:15:13.184Z,3.1
2018-07-06T06:15:25.607Z,3.1
2018-07-06T06:15:38.291Z,3.1
2018-07-06T06:15:50.757Z,3.1
2018-07-06T06:16:03.251Z,3.1
2018-07-06T06:16:16.045Z,3.1
2018-07-06T06:16:28.518Z,3.1
2018-07-06T06:16:40.943Z,3.1
2018-07-06T06:16:53.345Z,3.1
2018-07-06T06:17:05.740Z,3.1
2018-07-06T06:17:18.215Z,3.1
2018-07-06T06:17:30.810Z,3.1
2018-07-06T06:17:43.213Z,3.1
2018-07-06T06:17:55.697Z,3.1
2018-07-06T06:18:08.094Z,3.1
2018-07-06T06:18:20.505Z,3.1
2018-07-06T06:18:33.714Z,3.1
2018-07-06T06:18:47.935Z,3.1
2018-07-06T06:19:01.631Z,3.1
2018-07-06T06:19:14.085Z,3.1
2018-07-06T06:19:26.503Z,3.1
2018-07-06T06:19:38.921Z,3.1
2018-07-06T06:19:51.321Z,3.1
2018-07-06T06:20:03.863Z,3.1
2018-07-06T06:20:16.329Z,3.1
2018-07-06T06:20:28.751Z,3.1
2018-07-06T06:20:41.197Z,3.1
2018-07-06T06:20:53.605Z,3.1
2018-07-06T06:21:06.015Z,3.1
2018-07-06T06:21:18.420Z,3.1
2018-07-06T06:21:30.822Z,3.1
2018-07-06T06:21:43.241Z,3.1
2018-07-06T06:21:55.828Z,3.1
2018-07-06T06:22:08.278Z,3.1
2018-07-06T06:22:20.679Z,5.9
2018-07-06T06:22:33.070Z,5.9
2018-07-06T06:22:45.460Z,5.9
2018-07-06T06:22:57.885Z,5.9
2018-07-06T06:23:10.319Z,5.9
2018-07-06T06:23:22.736Z,5.9
2018-07-06T06:23:35.169Z,5.9
2018-07-06T06:23:47.586Z,5.9
2018-07-06T06:23:59.991Z,5.9
2018-07-06T06:24:12.407Z,5.9
2018-07-06T06:24:24.819Z,5.9
2018-07-06T06:24:37.224Z,5.9
2018-07-06T06:24:49.965Z,5.9
2018-07-06T06:25:02.968Z,5.9
2018-07-06T06:25:15.398Z,5.9
2018-07-06T06:25:27.867Z,5.9
2018-07-06T06:25:40.264Z,5.9
2018-07-06T06:25:52.689Z,5.9
2018-07-06T06:26:05.101Z,5.9
2018-07-06T06:26:17.496Z,5.9
2018-07-06T06:26:29.897Z,5.9
2018-07-06T06:26:42.303Z,5.9
2018-07-06T06:26:54.702Z,5.9
2018-07-06T06:27:07.104Z,5.9
2018-07-06T06:27:19.511Z,5.9
2018-07-06T06:27:31.931Z,5.9
2018-07-06T06:27:44.321Z,5.9
2018-07-06T06:27:56.729Z,5.9
2018-07-06T06:28:09.131Z,5.9
2018-07-06T06:28:21.537Z,5.9
2018-07-06T06:28:33.928Z,5.9
2018-07-06T06:28:46.329Z,5.9
2018-07-06T06:28:58.720Z,5.9
2018-07-06T06:29:11.133Z,5.9
2018-07-06T06:29:23.534Z,5.9
2018-07-06T06:29:35.937Z,5.9
2018-07-06T06:29:48.375Z,5.9
2018-07-06T06:30:00.787Z,5.9
2018-07-06T06:30:13.199Z,5.9
2018-07-06T06:30:25.606Z,5.9
2018-07-06T06:30:38.025Z,5.9
2018-07-06T06:30:50.441Z,5.9
2018-07-06T06:31:02.848Z,5.9
2018-07-06T06:31:15.237Z,5.9
2018-07-06T06:31:27.711Z,5.9
2018-07-06T06:31:40.121Z,5.9
2018-07-06T06:31:52.534Z,5.9
2018-07-06T06:32:04.949Z,5.9
2018-07-06T06:32:17.359Z,3.65
2018-07-06T06:32:29.761Z,3.65
2018-07-06T06:32:42.159Z,3.65
2018-07-06T06:32:54.733Z,3.65
2018-07-06T06:33:08.389Z,3.65
2018-07-06T06:33:22.429Z,3.65
2018-07-06T06:33:36.954Z,3.65
2018-07-06T06:33:51.570Z,3.65
2018-07-06T06:34:05.300Z,3.65
2018-07-06T06:34:17.704Z,3.65
2018-07-06T06:34:30.105Z,3.65
2018-07-06T06:34:42.515Z,3.65
2018-07-06T06:34:54.915Z,3.65
2018-07-06T06:35:07.309Z,3.65
2018-07-06T06:35:19.747Z,3.65
2018-07-06T06:35:32.155Z,3.65
2018-07-06T06:35:44.560Z,3.65
2018-07-06T06:35:56.957Z,3.65
2018-07-06T06:36:09.364Z,3.65
2018-07-06T06:36:21.808Z,3.65
2018-07-06T06:36:34.372Z,3.65
2018-07-06T06:36:46.765Z,3.65
2018-07-06T06:36:59.198Z,3.65
2018-07-06T06:37:11.607Z,3.65
2018-07-06T06:37:24.009Z,3.65
2018-07-06T06:37:36.420Z,3.65
2018-07-06T06:37:49.171Z,3.65
2018-07-06T06:38:01.615Z,3.65
2018-07-06T06:38:14.023Z,3.65
2018-07-06T06:38:26.429Z,3.65
2018-07-06T06:38:38.882Z,3.65
2018-07-06T06:38:51.454Z,3.65
2018-07-06T06:39:03.851Z,3.65
2018-07-06T06:39:16.251Z,3.65
2018-07-06T06:39:29.288Z,3.65
2018-07-06T06:39:42.336Z,3.65
2018-07-06T06:39:54.748Z,3.65
2018-07-06T06:40:07.245Z,3.65
2018-07-06T06:40:19.656Z,3.65
2018-07-06T06:40:32.048Z,3.65
2018-07-06T06:40:44.458Z,3.65
2018-07-06T06:40:56.862Z,3.65
2018-07-06T06:41:09.271Z,3.65
2018-07-06T06:41:21.676Z,3.65
2018-07-06T06:41:34.077Z,3.65
2018-07-06T06:41:46.482Z,3.65
2018-07-06T06:41:58.903Z,3.65
2018-07-06T06:42:11.324Z,3.65
2018-07-06T06:42:23.795Z,5.1
2018-07-06T06:42:36.197Z,5.1
2018-07-06T06:42:48.609Z,5.1
2018-07-06T06:43:01.019Z,5.1
2018-07-06T06:43:13.447Z,5.1
2018-07-06T06:43:25.842Z,5.1
2018-07-06T06:43:38.236Z,5.1
2018-07-06T06:43:50.640Z,5.1
2018-07-06T06:44:03.049Z,5.1
2018-07-06T06:44:15.641Z,5.1
2018-07-06T06:44:28.246Z,5.1
2018-07-06T06:44:40.814Z,5.1
2018-07-06T06:44:54.371Z,5.1
2018-07-06T06:45:06.820Z,5.1
2018-07-06T06:45:19.224Z,5.1
2018-07-06T06:45:31.663Z,5.1
2018-07-06T06:45:44.161Z,5.1
2018-07-06T06:45:56.780Z,5.1
2018-07-06T06:46:09.186Z,5.1
2018-07-06T06:46:21.599Z,5.1
2018-07-06T06:46:34.213Z,5.1
2018-07-06T06:46:47.575Z,5.1
2018-07-06T06:47:00.008Z,5.1
2018-07-06T06:47:12.417Z,5.1
2018-07-06T06:47:24.816Z,5.1
2018-07-06T06:47:37.203Z,5.1
2018-07-06T06:47:49.647Z,5.1
2018-07-06T06:48:02.044Z,5.1
2018-07-06T06:48:14.466Z,5.1
2018-07-06T06:48:26.928Z,5.1
2018-07-06T06:48:39.347Z,5.1
2018-07-06T06:48:51.929Z,5.1
2018-07-06T06:49:04.348Z,5.1
2018-07-06T06:49:16.778Z,5.1
2018-07-06T06:49:29.193Z,5.1
2018-07-06T06:49:41.590Z,5.1
2018-07-06T06:49:53.993Z,5.1
2018-07-06T06:50:06.388Z,5.1
2018-07-06T06:50:18.807Z,5.1
2018-07-06T06:50:31.221Z,5.1
2018-07-06T06:50:43.968Z,5.1
2018-07-06T06:50:56.650Z,5.1
2018-07-06T06:51:09.067Z,5.1
2018-07-06T06:51:21.461Z,5.1
2018-07-06T06:51:33.892Z,5.1
2018-07-06T06:51:46.281Z,5.1
2018-07-06T06:51:58.705Z,5.1
2018-07-06T06:52:11.108Z,5.1
2018-07-06T06:52:23.516Z,5.25
2018-07-06T06:52:35.916Z,5.25
2018-07-06T06:52:48.320Z,5.25
2018-07-06T06:53:00.960Z,5.25
2018-07-06T06:53:14.274Z,5.25
2018-07-06T06:53:26.687Z,5.25
2018-07-06T06:53:39.151Z,5.25
2018-07-06T06:53:51.559Z,5.25
2018-07-06T06:54:03.965Z,5.25
2018-07-06T06:54:16.425Z,5.25
2018-07-06T06:54:28.970Z,5.25
2018-07-06T06:54:41.409Z,5.25
2018-07-06T06:54:53.826Z,5.25
2018-07-06T06:55:06.242Z,5.25
2018-07-06T06:55:18.655Z,5.25
2018-07-06T06:55:31.096Z,5.25
2018-07-06T06:55:43.504Z,5.25
2018-07-06T06:55:55.926Z,5.25
2018-07-06T06:56:08.340Z,5.25
2018-07-06T06:56:20.763Z,5.25
2018-07-06T06:56:33.174Z,5.25
2018-07-06T06:56:45.566Z,5.25
2018-07-06T06:56:57.968Z,5.25
2018-07-06T06:57:10.397Z,5.25
2018-07-06T06:57:22.819Z,5.25
2018-07-06T06:57:35.230Z,5.25
2018-07-06T06:57:47.637Z,5.25
2018-07-06T06:58:00.047Z,5.25
2018-07-06T06:58:12.453Z,5.25
2018-07-06T06:58:24.869Z,5.25
2018-07-06T06:58:37.263Z,5.25
2018-07-06T06:58:49.675Z,5.25
2018-07-06T06:59:02.387Z,5.25
2018-07-06T06:59:15.383Z,5.25
2018-07-06T06:59:27.808Z,5.25
2018-07-06T06:59:40.200Z,5.25
2018-07-06T06:59:52.612Z,5.25
2018-07-06T07:00:05.033Z,5.25
2018-07-06T07:00:27.532Z,5.25
2018-07-06T07:00:40.253Z,5.25
2018-07-06T07:00:52.769Z,5.25
2018-07-06T07:01:05.812Z,5.25
2018-07-06T07:01:18.815Z,5.25
2018-07-06T07:01:31.243Z,5.25
2018-07-06T07:01:43.805Z,5.25
2018-07-06T07:01:56.249Z,5.25
2018-07-06T07:02:08.698Z,5.25
2018-07-06T07:02:21.144Z,3.26
2018-07-06T07:02:33.547Z,3.26
2018-07-06T07:02:45.972Z,3.26
2018-07-06T07:02:58.404Z,3.26
2018-07-06T07:03:10.842Z,3.26
2018-07-06T07:03:23.269Z,3.26
2018-07-06T07:03:35.689Z,3.26
2018-07-06T07:03:48.126Z,3.26
2018-07-06T07:04:00.539Z,3.26
2018-07-06T07:04:13.013Z,3.26
2018-07-06T07:04:25.427Z,3.26
2018-07-06T07:04:37.841Z,3.26
2018-07-06T07:04:50.451Z,3.26
2018-07-06T07:05:02.883Z,3.26
2018-07-06T07:05:15.321Z,3.26
2018-07-06T07:05:27.723Z,3.26
2018-07-06T07:05:40.124Z,3.26
2018-07-06T07:05:52.536Z,3.26
2018-07-06T07:06:04.943Z,3.26
2018-07-06T07:06:17.633Z,3.26
2018-07-06T07:06:30.026Z,3.26
2018-07-06T07:06:42.599Z,3.26
2018-07-06T07:06:55.007Z,3.26
2018-07-06T07:07:07.454Z,3.26
2018-07-06T07:07:20.008Z,3.26
2018-07-06T07:07:33.739Z,3.26
2018-07-06T07:07:47.597Z,3.26
2018-07-06T07:08:00.460Z,3.26
2018-07-06T07:08:12.919Z,3.26
2018-07-06T07:08:25.336Z,3.26
2018-07-06T07:08:37.751Z,3.26
2018-07-06T07:08:50.163Z,3.26
2018-07-06T07:09:02.804Z,3.26
2018-07-06T07:09:15.385Z,3.26
2018-07-06T07:09:27.837Z,3.26
2018-07-06T07:09:40.256Z,3.26
2018-07-06T07:09:52.812Z,3.26
2018-07-06T07:10:05.284Z,3.26
2018-07-06T07:10:17.702Z,3.26
2018-07-06T07:10:30.104Z,3.26
2018-07-06T07:10:42.516Z,3.26
2018-07-06T07:10:54.939Z,3.26
2018-07-06T07:11:07.354Z,3.26
2018-07-06T07:11:19.773Z,3.26
2018-07-06T07:11:32.178Z,3.26
2018-07-06T07:11:44.593Z,3.26
2018-07-06T07:11:57.014Z,3.26
2018-07-06T07:12:09.412Z,3.26
2018-07-06T07:12:21.827Z,7.66
2018-07-06T07:12:34.236Z,7.66
2018-07-06T07:12:46.632Z,7.66
2018-07-06T07:12:59.312Z,7.66
2018-07-06T07:13:11.724Z,7.66
2018-07-06T07:13:24.125Z,7.66
2018-07-06T07:13:36.624Z,7.66
2018-07-06T07:13:50.171Z,7.66
2018-07-06T07:14:04.328Z,7.66
2018-07-06T07:14:17.747Z,7.66
2018-07-06T07:14:30.167Z,7.66
2018-07-06T07:14:42.597Z,7.66
2018-07-06T07:14:55.019Z,7.66
2018-07-06T07:15:07.435Z,7.66
2018-07-06T07:15:20.096Z,7.66
2018-07-06T07:15:32.665Z,7.66
2018-07-06T07:15:45.057Z,7.66
2018-07-06T07:15:57.626Z,7.66
2018-07-06T07:16:10.048Z,7.66
2018-07-06T07:16:22.446Z,7.66
2018-07-06T07:16:34.847Z,7.66
2018-07-06T07:16:47.252Z,7.66
2018-07-06T07:16:59.801Z,7.66
2018-07-06T07:17:12.221Z,7.66
2018-07-06T07:17:24.759Z,7.66
2018-07-06T07:17:37.156Z,7.66
2018-07-06T07:17:49.575Z,7.66
2018-07-06T07:18:02.041Z,7.66
2018-07-06T07:18:14.458Z,7.66
2018-07-06T07:18:27.046Z,7.66
2018-07-06T07:18:39.449Z,7.66
2018-07-06T07:18:51.858Z,7.66
2018-07-06T07:19:04.261Z,7.66
2018-07-06T07:19:16.843Z,7.66
2018-07-06T07:19:29.534Z,7.66
2018-07-06T07:19:41.931Z,7.66
2018-07-06T07:19:54.344Z,7.66
2018-07-06T07:20:06.925Z,7.66
2018-07-06T07:20:19.341Z,7.66
2018-07-06T07:20:31.747Z,7.66
2018-07-06T07:20:44.142Z,7.66
2018-07-06T07:20:56.548Z,7.66
2018-07-06T07:21:09.227Z,7.66
2018-07-06T07:21:21.817Z,7.66
2018-07-06T07:21:34.218Z,7.66
2018-07-06T07:21:46.634Z,7.66
2018-07-06T07:21:59.064Z,7.66
2018-07-06T07:22:11.487Z,7.66
2018-07-06T07:22:23.899Z,4.12
2018-07-06T07:22:36.423Z,4.12
2018-07-06T07:22:48.989Z,4.12
2018-07-06T07:23:01.417Z,4.12
2018-07-06T07:23:13.858Z,4.12
2018-07-06T07:23:26.288Z,4.12
2018-07-06T07:23:39.061Z,4.12
2018-07-06T07:23:52.093Z,4.12
2018-07-06T07:24:04.517Z,4.12
2018-07-06T07:24:16.940Z,4.12
2018-07-06T07:24:29.411Z,4.12
2018-07-06T07:24:41.805Z,4.12
2018-07-06T07:24:54.210Z,4.12
2018-07-06T07:25:06.633Z,4.12
2018-07-06T07:25:19.239Z,4.12
2018-07-06T07:25:31.816Z,4.12
2018-07-06T07:25:44.397Z,4.12
2018-07-06T07:25:56.822Z,4.12
2018-07-06T07:26:09.247Z,4.12
2018-07-06T07:26:21.696Z,4.12
2018-07-06T07:26:34.106Z,4.12
2018-07-06T07:26:46.509Z,4.12
2018-07-06T07:26:58.924Z,4.12
2018-07-06T07:27:11.331Z,4.12
2018-07-06T07:27:23.740Z,4.12
2018-07-06T07:27:36.145Z,4.12
2018-07-06T07:27:48.604Z,4.12
2018-07-06T07:28:01.004Z,4.12
2018-07-06T07:28:13.392Z,4.12
2018-07-06T07:28:25.796Z,4.12
2018-07-06T07:28:38.207Z,4.12
2018-07-06T07:28:50.615Z,4.12
2018-07-06T07:29:03.002Z,4.12
2018-07-06T07:29:15.565Z,4.12
2018-07-06T07:29:27.978Z,4.12
2018-07-06T07:29:40.388Z,4.12
2018-07-06T07:29:52.836Z,4.12
2018-07-06T07:30:05.486Z,4.12
2018-07-06T07:30:18.634Z,4.12
2018-07-06T07:30:31.064Z,4.12
2018-07-06T07:30:43.474Z,4.12
2018-07-06T07:30:56.236Z,4.12
2018-07-06T07:31:08.642Z,4.12
2018-07-06T07:31:21.165Z,4.12
2018-07-06T07:31:33.763Z,4.12
2018-07-06T07:31:46.175Z,4.12
2018-07-06T07:31:58.614Z,4.12
2018-07-06T07:32:11.039Z,4.12
2018-07-06T07:32:23.453Z,4.25
2018-07-06T07:32:35.875Z,4.25
2018-07-06T07:32:48.272Z,4.25
2018-07-06T07:33:00.687Z,4.25
2018-07-06T07:33:13.119Z,4.25
2018-07-06T07:33:25.554Z,4.25
2018-07-06T07:33:37.962Z,4.25
2018-07-06T07:33:50.358Z,4.25
2018-07-06T07:34:02.789Z,4.25
2018-07-06T07:34:15.276Z,4.25
2018-07-06T07:34:27.700Z,4.25
2018-07-06T07:34:40.111Z,4.25
2018-07-06T07:34:52.643Z,4.25
2018-07-06T07:35:05.055Z,4.25
2018-07-06T07:35:17.464Z,4.25
2018-07-06T07:35:29.875Z,4.25
2018-07-06T07:35:42.274Z,4.25
2018-07-06T07:35:54.685Z,4.25
2018-07-06T07:36:07.097Z,4.25
2018-07-06T07:36:19.645Z,4.25
2018-07-06T07:36:32.345Z,4.25
2018-07-06T07:36:44.846Z,4.25
2018-07-06T07:36:57.263Z,4.25
2018-07-06T07:37:09.913Z,4.25
2018-07-06T07:37:22.328Z,4.25
2018-07-06T07:37:34.740Z,4.25
2018-07-06T07:37:47.232Z,4.25
2018-07-06T07:37:59.629Z,4.25
2018-07-06T07:38:12.140Z,4.25
2018-07-06T07:38:24.558Z,4.25
2018-07-06T07:38:37.113Z,4.25
2018-07-06T07:38:49.654Z,4.25
2018-07-06T07:39:02.980Z,4.25
2018-07-06T07:39:15.426Z,4.25
2018-07-06T07:39:27.838Z,4.25
2018-07-06T07:39:40.339Z,4.25
2018-07-06T07:39:52.724Z,4.25
2018-07-06T07:40:05.145Z,4.25
2018-07-06T07:40:17.555Z,4.25
2018-07-06T07:40:30.258Z,4.25
2018-07-06T07:40:42.652Z,4.25
2018-07-06T07:40:55.069Z,4.25
2018-07-06T07:41:07.474Z,4.25
2018-07-06T07:41:19.906Z,4.25
2018-07-06T07:41:32.356Z,4.25
2018-07-06T07:41:44.790Z,4.25
2018-07-06T07:41:57.216Z,4.25
2018-07-06T07:42:09.655Z,4.25
2018-07-06T07:42:22.100Z,3.55
2018-07-06T07:42:34.498Z,3.55
2018-07-06T07:42:46.895Z,3.55
2018-07-06T07:42:59.323Z,3.55
2018-07-06T07:43:11.714Z,3.55
2018-07-06T07:43:24.129Z,3.55
2018-07-06T07:43:36.541Z,3.55
2018-07-06T07:43:48.936Z,3.55
2018-07-06T07:44:01.335Z,3.55
2018-07-06T07:44:13.762Z,3.55
2018-07-06T07:44:26.439Z,3.55
2018-07-06T07:44:38.839Z,3.55
2018-07-06T07:44:51.241Z,3.55
2018-07-06T07:45:03.651Z,3.55
2018-07-06T07:45:16.061Z,3.55
2018-07-06T07:45:28.459Z,3.55
2018-07-06T07:45:40.869Z,3.55
2018-07-06T07:45:53.357Z,3.55
2018-07-06T07:46:05.762Z,3.55
2018-07-06T07:46:18.158Z,3.55
2018-07-06T07:46:31.002Z,3.55
2018-07-06T07:46:44.291Z,3.55
2018-07-06T07:46:56.707Z,3.55
2018-07-06T07:47:09.200Z,3.55
2018-07-06T07:47:21.608Z,3.55
2018-07-06T07:47:34.080Z,3.55
2018-07-06T07:47:46.496Z,3.55
2018-07-06T07:47:59.040Z,3.55
2018-07-06T07:48:11.440Z,3.55
2018-07-06T07:48:23.840Z,3.55
2018-07-06T07:48:36.326Z,3.55
2018-07-06T07:48:48.815Z,3.55
2018-07-06T07:49:01.225Z,3.55
2018-07-06T07:49:13.637Z,3.55
2018-07-06T07:49:26.085Z,3.55
2018-07-06T07:49:38.477Z,3.55
2018-07-06T07:49:50.871Z,3.55
2018-07-06T07:50:03.297Z,3.55
2018-07-06T07:50:15.732Z,3.55
2018-07-06T07:50:28.134Z,3.55
2018-07-06T07:50:40.665Z,3.55
2018-07-06T07:50:53.229Z,3.55
2018-07-06T07:51:05.645Z,3.55
2018-07-06T07:51:18.075Z,3.55
2018-07-06T07:51:30.464Z,3.55
2018-07-06T07:51:43.078Z,3.55
2018-07-06T07:51:55.761Z,3.55
2018-07-06T07:52:08.200Z,3.55
2018-07-06T07:52:20.674Z,3.55
2018-07-06T07:52:33.363Z,3.55
2018-07-06T07:52:45.813Z,3.55
2018-07-06T07:52:58.241Z,3.55
2018-07-06T07:53:10.648Z,3.55
2018-07-06T07:53:23.099Z,3.55
2018-07-06T07:53:35.522Z,3.55
2018-07-06T07:53:47.936Z,3.55
2018-07-06T07:54:00.348Z,3.55
2018-07-06T07:54:12.823Z,3.55
2018-07-06T07:54:25.340Z,3.55
2018-07-06T07:54:38.674Z,3.55
2018-07-06T07:54:51.536Z,3.55
2018-07-06T07:55:04.345Z,3.55
2018-07-06T07:55:17.473Z,3.55
2018-07-06T07:55:29.905Z,3.55
2018-07-06T07:55:42.317Z,3.55
2018-07-06T07:55:54.711Z,3.55
2018-07-06T07:56:07.121Z,3.55
2018-07-06T07:56:19.506Z,3.55
2018-07-06T07:56:31.936Z,3.55
2018-07-06T07:56:44.564Z,3.55
2018-07-06T07:56:57.117Z,3.55
2018-07-06T07:57:09.617Z,3.55
2018-07-06T07:57:22.013Z,3.55
2018-07-06T07:57:34.489Z,3.55
2018-07-06T07:57:46.900Z,3.55
2018-07-06T07:57:59.319Z,3.55
2018-07-06T07:58:11.744Z,3.55
2018-07-06T07:58:24.262Z,3.55
2018-07-06T07:58:36.963Z,3.55
2018-07-06T07:58:49.425Z,3.55
2018-07-06T07:59:01.857Z,3.55
2018-07-06T07:59:15.310Z,3.55
2018-07-06T07:59:27.950Z,3.55
2018-07-06T07:59:40.373Z,3.55
2018-07-06T07:59:52.774Z,3.55
2018-07-06T08:00:05.226Z,3.55
2018-07-06T08:00:18.001Z,3.55
2018-07-06T08:00:32.003Z,3.55
2018-07-06T08:00:47.311Z,3.55
2018-07-06T08:01:02.933Z,3.55
2018-07-06T08:01:18.747Z,3.55
2018-07-06T08:01:33.379Z,3.55
2018-07-06T08:01:46.765Z,3.55
2018-07-06T08:01:59.271Z,3.55
2018-07-06T08:02:12.034Z,3.55
2018-07-06T08:02:24.654Z,3.55
2018-07-06T08:02:37.373Z,3.55
2018-07-06T08:02:49.848Z,3.55
2018-07-06T08:03:02.602Z,3.55
2018-07-06T08:03:16.758Z,3.55
2018-07-06T08:03:29.468Z,3.55
2018-07-06T08:03:42.244Z,3.55
2018-07-06T08:03:54.944Z,3.55
2018-07-06T08:04:07.530Z,3.55
2018-07-06T08:04:20.000Z,5.95
2018-07-06T08:04:32.423Z,5.95
2018-07-06T08:04:44.964Z,5.95
2018-07-06T08:04:57.408Z,5.95
2018-07-06T08:05:09.843Z,5.95
2018-07-06T08:05:22.269Z,5.95
2018-07-06T08:05:34.701Z,5.95
2018-07-06T08:05:47.125Z,5.95
2018-07-06T08:05:59.696Z,5.95
2018-07-06T08:06:12.098Z,5.95
2018-07-06T08:06:24.511Z,5.95
2018-07-06T08:06:37.182Z,5.95
2018-07-06T08:06:50.118Z,5.95
2018-07-06T08:07:02.545Z,5.95
2018-07-06T08:07:14.975Z,5.95
2018-07-06T08:07:27.398Z,5.95
2018-07-06T08:07:39.802Z,5.95
2018-07-06T08:07:52.205Z,5.95
2018-07-06T08:08:04.622Z,5.95
2018-07-06T08:08:17.076Z,5.95
2018-07-06T08:08:29.489Z,5.95
2018-07-06T08:08:42.239Z,5.95
2018-07-06T08:08:54.643Z,5.95
2018-07-06T08:09:07.043Z,5.95
2018-07-06T08:09:19.534Z,5.95
2018-07-06T08:09:31.958Z,5.95
2018-07-06T08:09:44.409Z,5.95
2018-07-06T08:09:56.831Z,5.95
2018-07-06T08:10:09.234Z,5.95
2018-07-06T08:10:21.647Z,5.95
2018-07-06T08:10:34.409Z,5.95
2018-07-06T08:10:48.149Z,5.95
2018-07-06T08:11:00.841Z,5.95
2018-07-06T08:11:13.713Z,5.95
2018-07-06T08:11:26.123Z,5.95
2018-07-06T08:11:43.746Z,5.95
2018-07-06T08:11:57.162Z,5.95
2018-07-06T08:12:09.828Z,5.95
2018-07-06T08:12:22.477Z,5.95
2018-07-06T08:12:36.034Z,5.95
2018-07-06T08:12:48.498Z,5.95
2018-07-06T08:13:00.896Z,5.95
2018-07-06T08:13:13.309Z,5.95
2018-07-06T08:13:25.718Z,5.95
2018-07-06T08:13:38.110Z,5.95
2018-07-06T08:13:50.507Z,5.95
2018-07-06T08:14:09.767Z,5.95
2018-07-06T08:14:22.352Z,4.8
2018-07-06T08:14:35.840Z,4.8
2018-07-06T08:14:48.258Z,4.8
2018-07-06T08:15:00.690Z,4.8
2018-07-06T08:15:13.113Z,4.8
2018-07-06T08:15:25.509Z,4.8
2018-07-06T08:15:38.024Z,4.8
2018-07-06T08:15:50.550Z,4.8
2018-07-06T08:16:02.963Z,4.8
2018-07-06T08:16:15.395Z,4.8
2018-07-06T08:16:27.835Z,4.8
2018-07-06T08:16:40.240Z,4.8
2018-07-06T08:16:52.638Z,4.8
2018-07-06T08:17:05.202Z,4.8
2018-07-06T08:17:17.618Z,4.8
2018-07-06T08:17:30.024Z,4.8
2018-07-06T08:17:42.425Z,4.8
2018-07-06T08:17:54.835Z,4.8
2018-07-06T08:18:07.256Z,4.8
2018-07-06T08:18:20.042Z,4.8
2018-07-06T08:18:33.194Z,4.8
2018-07-06T08:18:45.636Z,4.8
2018-07-06T08:18:58.052Z,4.8
2018-07-06T08:19:10.459Z,4.8
2018-07-06T08:19:22.895Z,4.8
2018-07-06T08:19:35.313Z,4.8
2018-07-06T08:19:47.731Z,4.8
2018-07-06T08:20:00.157Z,4.8
2018-07-06T08:20:12.738Z,4.8
2018-07-06T08:20:25.157Z,4.8
2018-07-06T08:20:37.566Z,4.8
2018-07-06T08:20:49.987Z,4.8
2018-07-06T08:21:02.428Z,4.8
2018-07-06T08:21:14.962Z,4.8
2018-07-06T08:21:27.589Z,4.8
2018-07-06T08:21:40.281Z,4.8
2018-07-06T08:21:52.741Z,4.8
2018-07-06T08:22:05.152Z,4.8
2018-07-06T08:22:17.558Z,4.8
2018-07-06T08:22:29.968Z,4.8
2018-07-06T08:22:42.392Z,4.8
2018-07-06T08:22:54.851Z,4.8
2018-07-06T08:23:07.286Z,4.8
2018-07-06T08:23:19.698Z,4.8
2018-07-06T08:23:32.098Z,4.8
2018-07-06T08:23:44.502Z,4.8
2018-07-06T08:23:56.900Z,4.8
2018-07-06T08:24:09.320Z,4.8
2018-07-06T08:24:21.930Z,7.6
2018-07-06T08:24:34.342Z,7.6
2018-07-06T08:24:46.752Z,7.6
2018-07-06T08:24:59.169Z,7.6
2018-07-06T08:25:11.612Z,7.6
2018-07-06T08:25:24.193Z,7.6
2018-07-06T08:25:37.595Z,7.6
2018-07-06T08:25:50.351Z,7.6
2018-07-06T08:26:02.878Z,7.6
2018-07-06T08:26:15.497Z,7.6
2018-07-06T08:26:27.899Z,7.6
2018-07-06T08:26:40.317Z,7.6
2018-07-06T08:26:52.724Z,7.6
2018-07-06T08:27:05.147Z,7.6
2018-07-06T08:27:17.562Z,7.6
2018-07-06T08:27:29.960Z,7.6
2018-07-06T08:27:42.370Z,7.6
2018-07-06T08:27:54.772Z,7.6
2018-07-06T08:28:07.189Z,7.6
2018-07-06T08:28:19.585Z,7.6
2018-07-06T08:28:31.985Z,7.6
2018-07-06T08:28:44.493Z,7.6
2018-07-06T08:28:56.884Z,7.6
2018-07-06T08:29:09.283Z,7.6
2018-07-06T08:29:21.924Z,7.6
2018-07-06T08:29:34.328Z,7.6
2018-07-06T08:29:46.773Z,7.6
2018-07-06T08:29:59.198Z,7.6
2018-07-06T08:30:11.629Z,7.6
2018-07-06T08:30:24.504Z,7.6
2018-07-06T08:30:37.122Z,7.6
2018-07-06T08:30:49.560Z,7.6
2018-07-06T08:31:01.975Z,7.6
2018-07-06T08:31:14.410Z,7.6
2018-07-06T08:31:27.051Z,7.6
2018-07-06T08:31:40.345Z,7.6
2018-07-06T08:31:53.160Z,7.6
2018-07-06T08:32:05.576Z,7.6
2018-07-06T08:32:17.979Z,7.6
2018-07-06T08:32:30.472Z,7.6
2018-07-06T08:32:42.875Z,7.6
2018-07-06T08:32:55.272Z,7.6
2018-07-06T08:33:07.680Z,7.6
2018-07-06T08:33:20.089Z,7.6
2018-07-06T08:33:32.487Z,7.6
2018-07-06T08:33:44.895Z,7.6
2018-07-06T08:33:57.337Z,7.6
2018-07-06T08:34:09.740Z,7.6
2018-07-06T08:34:22.142Z,7.6
2018-07-06T08:34:34.560Z,7.6
2018-07-06T08:34:47.184Z,7.6
2018-07-06T08:34:59.598Z,7.6
2018-07-06T08:35:12.021Z,7.6
2018-07-06T08:35:24.434Z,7.6
2018-07-06T08:35:36.839Z,7.6
2018-07-06T08:35:49.238Z,7.6
2018-07-06T08:36:01.649Z,7.6
2018-07-06T08:36:14.062Z,7.6
2018-07-06T08:36:26.950Z,7.6
2018-07-06T08:36:39.755Z,7.6
2018-07-06T08:36:52.241Z,7.6
2018-07-06T08:37:04.659Z,7.6
2018-07-06T08:37:17.073Z,7.6
2018-07-06T08:37:29.460Z,7.6
2018-07-06T08:37:41.887Z,7.6
2018-07-06T08:37:54.420Z,7.6
2018-07-06T08:38:06.846Z,7.6
2018-07-06T08:38:19.254Z,7.6
2018-07-06T08:38:31.677Z,7.6
2018-07-06T08:38:44.090Z,7.6
2018-07-06T08:38:56.655Z,7.6
2018-07-06T08:39:09.206Z,7.6
2018-07-06T08:39:21.609Z,7.6
2018-07-06T08:39:34.402Z,7.6
2018-07-06T08:39:47.884Z,7.6
2018-07-06T08:40:01.244Z,7.6
2018-07-06T08:40:13.687Z,7.6
2018-07-06T08:40:26.250Z,7.6
2018-07-06T08:40:38.675Z,7.6
2018-07-06T08:40:51.099Z,7.6
2018-07-06T08:41:03.519Z,7.6
2018-07-06T08:41:15.922Z,7.6
2018-07-06T08:41:28.346Z,7.6
2018-07-06T08:41:40.796Z,7.6
2018-07-06T08:41:53.209Z,7.6
2018-07-06T08:42:05.658Z,7.6
2018-07-06T08:42:18.076Z,7.6
2018-07-06T08:42:30.475Z,7.6
2018-07-06T08:42:42.900Z,7.6
2018-07-06T08:42:55.337Z,7.6
2018-07-06T08:43:07.757Z,7.6
2018-07-06T08:43:20.175Z,7.6
2018-07-06T08:43:32.603Z,7.6
2018-07-06T08:43:45.032Z,7.6
2018-07-06T08:43:57.431Z,7.6
2018-07-06T08:44:09.865Z,7.6
2018-07-06T08:44:22.482Z,7.6
2018-07-06T08:44:35.213Z,7.6
2018-07-06T08:44:47.691Z,7.6
2018-07-06T08:45:00.925Z,7.6
2018-07-06T08:45:13.828Z,7.6
2018-07-06T08:45:26.257Z,7.6
2018-07-06T08:45:38.680Z,7.6
2018-07-06T08:45:51.178Z,7.6
2018-07-06T08:46:03.668Z,7.6
2018-07-06T08:46:16.105Z,7.6
2018-07-06T08:46:28.657Z,4.73
2018-07-06T08:46:41.212Z,4.73
2018-07-06T08:46:53.639Z,4.73
2018-07-06T08:47:06.242Z,4.73
2018-07-06T08:47:18.785Z,4.73
2018-07-06T08:47:31.212Z,4.73
2018-07-06T08:47:43.703Z,4.73
2018-07-06T08:47:56.176Z,4.73
2018-07-06T08:48:08.592Z,4.73
2018-07-06T08:48:21.010Z,4.73
2018-07-06T08:48:33.419Z,4.73
2018-07-06T08:48:45.932Z,4.73
2018-07-06T08:48:58.370Z,4.73
2018-07-06T08:49:10.826Z,4.73
2018-07-06T08:49:23.231Z,4.73
2018-07-06T08:49:35.623Z,4.73
2018-07-06T08:49:48.187Z,4.73
2018-07-06T08:50:00.601Z,4.73
2018-07-06T08:50:13.126Z,4.73
2018-07-06T08:50:26.275Z,4.73
2018-07-06T08:50:39.118Z,4.73
2018-07-06T08:50:51.675Z,4.73
2018-07-06T08:51:04.093Z,4.73
2018-07-06T08:51:16.518Z,4.73
2018-07-06T08:51:28.930Z,4.73
2018-07-06T08:51:41.375Z,4.73
2018-07-06T08:51:53.774Z,4.73
2018-07-06T08:52:06.176Z,4.73
2018-07-06T08:52:18.590Z,4.73
2018-07-06T08:52:31.000Z,4.73
2018-07-06T08:52:43.411Z,4.73
2018-07-06T08:52:55.820Z,4.73
2018-07-06T08:53:08.231Z,4.73
2018-07-06T08:53:20.666Z,4.73
2018-07-06T08:53:33.087Z,4.73
2018-07-06T08:53:45.516Z,4.73
2018-07-06T08:53:57.921Z,4.73
2018-07-06T08:54:10.327Z,4.73
2018-07-06T08:54:22.745Z,4.73
2018-07-06T08:54:35.158Z,4.73
2018-07-06T08:54:47.588Z,4.73
2018-07-06T08:55:00.013Z,4.73
2018-07-06T08:55:12.440Z,4.73
2018-07-06T08:55:24.835Z,4.73
2018-07-06T08:55:37.247Z,4.73
2018-07-06T08:55:49.660Z,4.73
2018-07-06T08:56:02.105Z,4.73
2018-07-06T08:56:14.539Z,4.73
2018-07-06T08:56:26.959Z,3.9
2018-07-06T08:56:39.380Z,3.9
2018-07-06T08:56:51.793Z,3.9
2018-07-06T08:57:04.199Z,3.9
2018-07-06T08:57:16.680Z,3.9
2018-07-06T08:57:29.096Z,3.9
2018-07-06T08:57:41.633Z,3.9
2018-07-06T08:57:54.123Z,3.9
2018-07-06T08:58:06.655Z,3.9
2018-07-06T08:58:19.204Z,3.9
2018-07-06T08:58:33.160Z,3.9
2018-07-06T08:58:46.477Z,3.9
2018-07-06T08:58:58.908Z,3.9
2018-07-06T08:59:11.333Z,3.9
2018-07-06T08:59:23.726Z,3.9
2018-07-06T08:59:36.140Z,3.9
2018-07-06T08:59:48.542Z,3.9
2018-07-06T09:00:01.057Z,3.9
2018-07-06T09:00:13.570Z,3.9
2018-07-06T09:00:25.997Z,3.9
2018-07-06T09:00:38.433Z,3.9
2018-07-06T09:00:51.040Z,3.9
2018-07-06T09:01:03.476Z,3.9
2018-07-06T09:01:15.934Z,3.9
2018-07-06T09:01:28.559Z,3.9
2018-07-06T09:01:41.191Z,3.9